Time;durP1;ratioP1;P1;durP2;ratioP2;P2;SDS_P1;SDS_P2;PMS_P1;PMS_P2;Temp;Humidity;BMP_temperature;BMP_pressure;BME280_temperature;BME280_humidity;BME280_pressure;Samples;Min_cycle;Max_cycle;Signal;HPM_P1;HPM_P2
2021/05/12 00:04:34;;;;;;;14.27;12.63;;;23.70;51.10;;;;;;4396863;60;21076;-23
2021/05/12 00:09:35;;;;;;;15.00;13.40;;;23.70;51.10;;;;;;4403685;60;21060;-25
2021/05/12 00:14:36;;;;;;;14.23;12.77;;;23.70;51.10;;;;;;4393822;60;21036;-25
2021/05/12 00:19:40;;;;;;;14.60;13.10;;;23.70;51.00;;;;;;4387452;64;21529;-25
2021/05/12 00:24:41;;;;;;;14.98;13.00;;;23.70;51.00;;;;;;4390109;60;21537;-23
2021/05/12 00:29:42;;;;;;;13.70;12.20;;;23.70;51.10;;;;;;4390389;60;21048;-24
2021/05/12 00:34:42;;;;;;;14.07;12.68;;;23.70;51.10;;;;;;4391202;60;21059;-26
2021/05/12 00:39:43;;;;;;;15.40;13.73;;;23.70;51.00;;;;;;4390680;60;21521;-26
2021/05/12 00:44:44;;;;;;;13.77;12.27;;;23.70;51.10;;;;;;4407172;60;21180;-22
2021/05/12 00:49:45;;;;;;;13.60;12.27;;;23.70;51.10;;;;;;4390827;60;22095;-26
2021/05/12 00:54:46;;;;;;;13.70;12.15;;;23.70;51.10;;;;;;4402477;60;21040;-25
2021/05/12 00:59:48;;;;;;;14.15;12.45;;;23.70;51.10;;;;;;4392779;60;21110;-24
2021/05/12 01:04:49;;;;;;;14.07;12.68;;;23.70;51.10;;;;;;4405110;60;21623;-25
2021/05/12 01:09:50;;;;;;;13.45;12.10;;;23.70;51.10;;;;;;4416204;60;21115;-24
2021/05/12 01:14:51;;;;;;;13.95;12.57;;;23.70;51.10;;;;;;4396501;60;21047;-25
2021/05/12 01:19:52;;;;;;;14.68;12.68;;;23.70;51.70;;;;;;4398215;60;21562;-24
2021/05/12 01:24:52;;;;;;;13.35;11.95;;;23.70;51.70;;;;;;4402230;60;21127;-27
2021/05/12 01:29:54;;;;;;;14.50;12.82;;;23.70;51.10;;;;;;4405342;60;21063;-27
2021/05/12 01:35:10;;;;;;;13.38;11.98;;;23.60;51.00;;;;;;4391322;60;21055;-23
2021/05/12 01:40:12;;;;;;;14.05;11.85;;;23.60;51.00;;;;;;4389222;60;21059;-25
2021/05/12 01:45:15;;;;;;;12.55;11.25;;;23.70;51.10;;;;;;4388494;60;21109;-23
2021/05/12 01:50:16;;;;;;;13.00;11.68;;;23.70;51.10;;;;;;4429837;60;21039;-23
2021/05/12 01:55:16;;;;;;;13.18;11.77;;;23.70;51.70;;;;;;4395750;60;21112;-31
2021/05/12 02:00:49;;;;;;;12.57;11.38;;;23.70;51.10;;;;;;4440465;60;21099;-19
2021/05/12 02:05:54;;;;;;;11.85;10.65;;;23.60;51.00;;;;;;4431063;60;21060;-25
2021/05/12 02:10:58;;;;;;;12.30;11.00;;;23.60;51.00;;;;;;4423601;60;21048;-27
2021/05/12 02:16:02;;;;;;;11.93;10.63;;;23.70;51.10;;;;;;4402349;60;21214;-22
2021/05/12 02:21:06;;;;;;;13.48;11.88;;;23.60;51.00;;;;;;4418911;60;21016;-22
2021/05/12 02:26:07;;;;;;;12.45;11.20;;;23.60;51.00;;;;;;4387793;64;21148;-26
2021/05/12 02:31:07;;;;;;;12.43;11.23;;;23.60;51.00;;;;;;4395015;60;21155;-25
2021/05/12 02:36:08;;;;;;;12.48;11.18;;;23.60;51.00;;;;;;4452276;60;21082;-28
2021/05/12 02:41:09;;;;;;;12.00;10.85;;;23.60;51.10;;;;;;4467138;60;22390;-27
2021/05/12 02:46:10;;;;;;;11.45;10.10;;;23.60;50.90;;;;;;4410462;60;21549;-27
2021/05/12 02:51:11;;;;;;;12.00;10.32;;;23.60;51.00;;;;;;4415457;60;21537;-25
2021/05/12 02:56:12;;;;;;;11.98;10.77;;;23.60;50.90;;;;;;4391682;60;22222;-25
2021/05/12 03:01:12;;;;;;;11.07;10.05;;;23.60;51.00;;;;;;4405468;60;21041;-25
2021/05/12 03:06:13;;;;;;;11.15;10.05;;;23.60;50.90;;;;;;4388083;64;21040;-23
2021/05/12 03:11:14;;;;;;;12.20;10.95;;;23.60;50.90;;;;;;4386788;64;21048;-23
2021/05/12 03:16:15;;;;;;;11.27;10.18;;;23.60;50.90;;;;;;4404612;60;21482;-26
2021/05/12 03:21:16;;;;;;;11.07;9.98;;;23.60;50.90;;;;;;4389244;60;21544;-26
2021/05/12 03:26:18;;;;;;;11.45;10.35;;;23.60;50.90;;;;;;4400074;60;21091;-24
2021/05/12 03:31:19;;;;;;;11.25;10.15;;;23.60;50.90;;;;;;4424503;60;21055;-23
2021/05/12 03:36:21;;;;;;;11.10;10.00;;;23.60;50.90;;;;;;4444460;60;21100;-26
2021/05/12 03:41:21;;;;;;;11.05;9.38;;;23.60;51.50;;;;;;4431195;60;21120;-24
2021/05/12 03:46:22;;;;;;;10.98;9.88;;;23.60;50.90;;;;;;4395031;60;21052;-24
2021/05/12 03:51:23;;;;;;;11.43;10.07;;;23.60;50.90;;;;;;4436579;60;21047;-24
2021/05/12 03:56:24;;;;;;;11.30;10.15;;;23.60;50.90;;;;;;4395444;60;21043;-25
2021/05/12 04:01:26;;;;;;;11.07;9.98;;;23.60;50.90;;;;;;4404352;60;21083;-26
2021/05/12 04:06:28;;;;;;;10.88;9.88;;;23.60;50.90;;;;;;4409019;60;21595;-25
2021/05/12 04:11:29;;;;;;;10.88;9.77;;;23.60;51.50;;;;;;4387845;64;21087;-22
2021/05/12 04:16:31;;;;;;;11.00;9.95;;;23.60;50.90;;;;;;4435382;60;21032;-25
2021/05/12 04:21:35;;;;;;;10.85;9.75;;;23.60;50.90;;;;;;4456922;60;21092;-18
2021/05/12 04:26:36;;;;;;;12.35;10.13;;;23.60;50.90;;;;;;4403429;60;21109;-24
2021/05/12 04:31:38;;;;;;;10.13;9.13;;;23.60;50.90;;;;;;4416449;60;21039;-22
2021/05/12 04:36:40;;;;;;;10.35;9.35;;;23.60;50.90;;;;;;4474587;60;21629;-24
2021/05/12 04:41:41;;;;;;;9.93;8.95;;;23.60;50.90;;;;;;4401125;60;21115;-23
2021/05/12 04:46:45;;;;;;;10.32;9.20;;;23.60;51.00;;;;;;4393819;60;21144;-23
2021/05/12 04:51:46;;;;;;;9.40;8.50;;;23.60;50.90;;;;;;4403667;60;21590;-24
2021/05/12 04:56:47;;;;;;;9.52;8.63;;;23.60;51.00;;;;;;4397278;60;21043;-24
2021/05/12 05:01:48;;;;;;;10.13;9.13;;;23.60;51.00;;;;;;4408948;60;21654;-22
2021/05/12 05:06:50;;;;;;;10.50;9.35;;;23.60;51.00;;;;;;4404183;60;21511;-25
2021/05/12 05:11:50;;;;;;;9.88;8.88;;;23.60;50.90;;;;;;4395891;60;21217;-24
2021/05/12 05:16:51;;;;;;;10.52;9.43;;;23.60;50.90;;;;;;4388559;64;21067;-25
2021/05/12 05:21:52;;;;;;;9.88;8.88;;;23.60;51.00;;;;;;4398847;60;21064;-25
2021/05/12 05:26:53;;;;;;;9.10;8.20;;;23.60;51.20;;;;;;4398533;60;21120;-23
2021/05/12 05:31:53;;;;;;;10.13;9.07;;;23.60;50.90;;;;;;4390827;60;21100;-25
2021/05/12 05:36:54;;;;;;;10.18;9.18;;;23.60;50.90;;;;;;4404753;60;21116;-23
2021/05/12 05:41:55;;;;;;;9.18;8.30;;;23.60;50.90;;;;;;4397706;60;21104;-23
2021/05/12 05:46:56;;;;;;;9.50;8.50;;;23.60;50.80;;;;;;4387689;64;21541;-19
2021/05/12 05:51:57;;;;;;;9.10;8.20;;;23.60;50.90;;;;;;4407534;60;21031;-24
2021/05/12 05:57:05;;;;;;;9.23;8.32;;;23.60;50.80;;;;;;4388308;64;21120;-23
2021/05/12 06:02:07;;;;;;;9.80;8.88;;;23.60;50.90;;;;;;4441755;60;21570;-26
2021/05/12 06:07:09;;;;;;;9.80;8.80;;;23.60;50.80;;;;;;4446565;60;21075;-27
2021/05/12 06:12:09;;;;;;;9.73;8.73;;;23.60;50.80;;;;;;4396662;60;21673;-26
2021/05/12 06:17:10;;;;;;;10.30;9.25;;;23.60;50.80;;;;;;4413116;60;21111;-25
2021/05/12 06:22:11;;;;;;;9.75;8.73;;;23.60;50.80;;;;;;4395330;60;21096;-26
2021/05/12 06:27:12;;;;;;;9.48;8.57;;;23.60;50.80;;;;;;4396755;60;21108;-25
2021/05/12 06:32:15;;;;;;;9.20;8.30;;;23.60;50.70;;;;;;4402599;60;21494;-26
2021/05/12 06:37:16;;;;;;;9.90;8.90;;;23.60;50.80;;;;;;4393460;60;21494;-24
2021/05/12 06:42:17;;;;;;;9.55;8.65;;;23.60;50.70;;;;;;4411049;59;21092;-24
2021/05/12 06:47:18;;;;;;;10.95;9.25;;;23.60;50.70;;;;;;4399079;60;21055;-26
2021/05/12 06:52:19;;;;;;;10.48;9.00;;;23.60;50.70;;;;;;4391822;60;21020;-23
2021/05/12 06:57:20;;;;;;;10.85;9.77;;;23.60;50.70;;;;;;4395797;60;21047;-26
2021/05/12 07:02:21;;;;;;;9.93;8.90;;;23.60;50.70;;;;;;4396854;60;21982;-27
2021/05/12 07:07:24;;;;;;;10.10;9.10;;;23.60;50.70;;;;;;4396231;60;21226;-25
2021/05/12 07:12:25;;;;;;;10.35;9.25;;;23.60;50.70;;;;;;4403883;60;21135;-25
2021/05/12 07:17:26;;;;;;;9.93;8.93;;;23.60;51.00;;;;;;4393786;60;21123;-33
2021/05/12 07:22:27;;;;;;;10.63;8.75;;;23.60;51.20;;;;;;4393785;60;21043;-25
2021/05/12 07:27:28;;;;;;;9.90;8.90;;;23.70;51.50;;;;;;4394529;60;21866;-26
2021/05/12 07:32:29;;;;;;;10.70;9.35;;;23.70;51.70;;;;;;4416069;60;21498;-26
2021/05/12 07:37:30;;;;;;;10.63;9.60;;;23.70;51.90;;;;;;4412120;60;21035;-26
2021/05/12 07:42:33;;;;;;;10.55;9.50;;;23.80;52.20;;;;;;4394397;60;21079;-26
2021/05/12 07:47:34;;;;;;;11.68;9.75;;;23.80;52.30;;;;;;4394216;60;21113;-26
2021/05/12 07:52:35;;;;;;;15.05;11.38;;;23.80;52.50;;;;;;4387722;61;21047;-25
2021/05/12 07:57:36;;;;;;;14.32;11.35;;;23.90;52.80;;;;;;4421684;60;21529;-20
2021/05/12 08:02:37;;;;;;;16.17;11.63;;;23.90;53.00;;;;;;4393029;60;21127;-21
2021/05/12 08:07:38;;;;;;;17.58;12.20;;;23.90;53.10;;;;;;4419270;60;21076;-26
2021/05/12 08:12:39;;;;;;;17.67;13.65;;;23.90;53.10;;;;;;4429640;60;21051;-24
2021/05/12 08:17:39;;;;;;;17.25;13.93;;;23.90;53.10;;;;;;4386857;64;21081;-27
2021/05/12 08:22:40;;;;;;;68.18;42.70;;;24.00;53.20;;;;;;4389506;60;21064;-24
2021/05/12 08:27:42;;;;;;;53.95;37.83;;;23.90;54.70;;;;;;4422758;60;21071;-24
2021/05/12 08:32:43;;;;;;;57.17;37.80;;;23.90;54.60;;;;;;4394105;60;21530;-25
2021/05/12 08:37:44;;;;;;;58.13;38.42;;;23.90;54.70;;;;;;4387289;64;22179;-24
2021/05/12 08:42:46;;;;;;;53.30;40.40;;;23.90;54.90;;;;;;4390693;60;21515;-24
2021/05/12 08:47:54;;;;;;;55.30;40.40;;;24.00;55.00;;;;;;4393453;60;21060;-21
2021/05/12 08:52:56;;;;;;;62.97;42.10;;;24.00;55.30;;;;;;4387796;64;21585;-21
2021/05/12 08:57:56;;;;;;;58.63;41.50;;;24.10;55.50;;;;;;4387307;64;21633;-24
2021/05/12 09:03:02;;;;;;;58.38;40.58;;;24.10;55.60;;;;;;4387560;64;21068;-26
2021/05/12 09:08:04;;;;;;;52.53;40.22;;;24.20;55.80;;;;;;4396588;60;21048;-22
2021/05/12 09:13:08;;;;;;;51.72;39.20;;;24.20;55.80;;;;;;4395170;60;21096;-22
2021/05/12 09:18:09;;;;;;;54.10;39.80;;;24.20;56.00;;;;;;4386988;61;21541;-22
2021/05/12 09:23:16;;;;;;;55.28;37.80;;;24.20;56.10;;;;;;4410539;60;21135;-24
2021/05/12 09:28:21;;;;;;;48.83;37.55;;;24.30;56.20;;;;;;4393105;60;21522;-20
2021/05/12 09:33:30;;;;;;;50.17;37.00;;;24.30;56.20;;;;;;4442997;60;21155;-20
2021/05/12 09:38:33;;;;;;;49.70;38.35;;;24.30;56.30;;;;;;4392281;60;21598;-28
2021/05/12 09:43:36;;;;;;;47.58;37.95;;;24.40;56.50;;;;;;4332512;58;21103;-23
2021/05/12 09:48:37;;;;;;;46.33;35.38;;;24.40;56.60;;;;;;4323043;61;21624;-24
2021/05/12 09:53:38;;;;;;;49.08;36.40;;;24.40;56.70;;;;;;4327387;61;21075;-23
2021/05/12 09:58:54;;;;;;;52.55;38.65;;;24.40;56.80;;;;;;4309766;61;21133;-24
2021/05/12 10:03:54;;;;;;;51.00;37.27;;;24.50;57.20;;;;;;4303350;61;21191;-22
2021/05/12 10:08:55;;;;;;;48.05;37.33;;;24.50;57.00;;;;;;4302974;61;21318;-22
2021/05/12 10:13:56;;;;;;;46.40;35.97;;;24.50;57.20;;;;;;4303458;61;21583;-24
2021/05/12 10:18:57;;;;;;;46.33;36.08;;;24.50;57.20;;;;;;4326074;60;21120;-29
2021/05/12 10:23:58;;;;;;;52.25;38.38;;;24.50;57.30;;;;;;4302777;61;21071;-23
2021/05/12 10:28:59;;;;;;;47.28;37.63;;;24.60;57.40;;;;;;4357180;60;21557;-24
2021/05/12 10:34:01;;;;;;;50.70;37.22;;;24.50;57.50;;;;;;4308951;61;21072;-24
2021/05/12 10:39:04;;;;;;;47.50;35.97;;;24.50;57.50;;;;;;4306371;61;21132;-26
2021/05/12 10:44:18;;;;;;;50.17;36.50;;;24.60;57.60;;;;;;4348557;60;21087;-26
2021/05/12 10:49:23;;;;;;;45.97;35.78;;;24.60;57.60;;;;;;4303690;61;21615;-24
2021/05/12 10:54:42;;;;;;;45.67;35.00;;;24.60;57.70;;;;;;4315765;61;21585;-23
2021/05/12 10:59:54;;;;;;;47.30;38.47;;;24.60;57.90;;;;;;4317984;61;21107;-19
2021/05/12 11:05:01;;;;;;;48.15;38.00;;;24.60;57.90;;;;;;4332912;61;21208;-25
2021/05/12 11:10:02;;;;;;;55.60;39.70;;;24.60;57.90;;;;;;4316522;61;21191;-25
2021/05/12 11:15:05;;;;;;;47.72;37.35;;;24.60;57.90;;;;;;4308214;61;21152;-23
2021/05/12 11:20:13;;;;;;;53.08;40.95;;;24.60;58.00;;;;;;4326739;61;21188;-21
2021/05/12 11:25:31;;;;;;;59.72;41.22;;;24.70;58.10;;;;;;4344422;61;22454;-24
2021/05/12 11:36:09;;;;;;;48.47;40.03;;;24.70;58.00;;;;;;4303004;61;21084;-22
2021/05/12 11:41:18;;;;;;;51.42;39.25;;;24.60;57.90;;;;;;4314073;61;21580;-24
2021/05/12 11:46:40;;;;;;;54.75;41.47;;;24.60;57.80;;;;;;4330524;61;21047;-27
2021/05/12 11:51:46;;;;;;;54.90;42.50;;;24.60;57.70;;;;;;4309611;61;21059;-25
2021/05/12 11:56:57;;;;;;;51.92;42.03;;;24.60;57.60;;;;;;4318691;61;21102;-26
2021/05/12 12:02:05;;;;;;;53.00;42.15;;;24.50;58.10;;;;;;4320494;61;21047;-22
2021/05/12 12:07:07;;;;;;;55.58;43.22;;;24.50;57.40;;;;;;4314973;61;21588;-27
2021/05/12 12:12:08;;;;;;;53.53;43.58;;;24.50;57.30;;;;;;4313895;61;21082;-26
2021/05/12 12:17:13;;;;;;;59.72;44.90;;;24.50;57.20;;;;;;4304368;61;21071;-24
2021/05/12 12:22:14;;;;;;;54.40;43.87;;;24.50;57.30;;;;;;4306693;61;21541;-26
2021/05/12 12:27:19;;;;;;;50.10;41.72;;;24.50;57.40;;;;;;4318174;61;21124;-27
2021/05/12 12:32:21;;;;;;;54.47;44.42;;;24.50;57.40;;;;;;4310239;61;21079;-26
2021/05/12 12:37:31;;;;;;;57.60;45.53;;;24.60;57.50;;;;;;4309291;61;21521;-27
2021/05/12 12:43:37;;;;;;;54.42;42.30;;;24.60;57.60;;;;;;4302876;61;21538;-26
2021/05/12 12:48:37;;;;;;;50.17;41.42;;;24.60;57.50;;;;;;4331500;61;21051;-25
2021/05/12 12:53:52;;;;;;;53.92;42.40;;;24.60;57.70;;;;;;4302909;61;21051;-25
2021/05/12 13:01:30;;;;;;;55.17;43.50;;;24.60;57.70;;;;;;4336387;61;21106;-24
2021/05/12 13:06:31;;;;;;;57.47;45.35;;;24.70;57.90;;;;;;4310801;61;21075;-27
2021/05/12 13:11:32;;;;;;;52.17;42.13;;;24.70;58.00;;;;;;4301674;65;21124;-23
2021/05/12 13:16:35;;;;;;;56.47;45.85;;;24.70;58.00;;;;;;4336879;60;21613;-26
2021/05/12 13:21:39;;;;;;;53.80;43.05;;;24.70;58.10;;;;;;4302962;65;21562;-25
2021/05/12 13:26:42;;;;;;;53.63;42.83;;;24.70;58.20;;;;;;4307695;61;21143;-29
2021/05/12 13:31:44;;;;;;;52.78;41.75;;;24.70;58.20;;;;;;4346318;61;21091;-25
2021/05/12 13:36:49;;;;;;;54.65;43.55;;;24.70;58.20;;;;;;4304504;61;21598;-21
2021/05/12 13:41:50;;;;;;;51.42;42.08;;;24.70;58.30;;;;;;4302737;65;21538;-23
2021/05/12 13:46:52;;;;;;;55.47;44.20;;;24.70;58.30;;;;;;4309329;61;21139;-24
2021/05/12 13:51:55;;;;;;;54.83;42.22;;;24.70;58.30;;;;;;4308891;61;21593;-27
2021/05/12 13:57:02;;;;;;;52.15;41.72;;;24.70;58.70;;;;;;4311550;61;21649;-26
2021/05/12 14:02:33;;;;;;;48.20;41.05;;;24.70;58.60;;;;;;4305081;61;21573;-27
2021/05/12 14:07:38;;;;;;;49.80;39.80;;;24.70;58.60;;;;;;4312799;61;21810;-25
2021/05/12 14:12:43;;;;;;;49.38;40.45;;;24.70;58.70;;;;;;4310921;61;21479;-24
2021/05/12 14:17:47;;;;;;;52.30;41.67;;;24.70;58.60;;;;;;4303003;61;21608;-23
2021/05/12 14:22:48;;;;;;;48.90;40.83;;;24.70;58.60;;;;;;4338427;60;22115;-22
2021/05/12 14:27:49;;;;;;;49.97;41.45;;;24.70;58.70;;;;;;4310098;61;21111;-26
2021/05/12 14:32:50;;;;;;;52.88;41.08;;;24.70;58.60;;;;;;4305815;61;21144;-27
2021/05/12 14:37:52;;;;;;;48.25;40.05;;;24.70;58.60;;;;;;4302802;65;21597;-26
2021/05/12 14:42:53;;;;;;;48.30;39.85;;;24.70;58.60;;;;;;4310038;61;22147;-26
2021/05/12 14:48:03;;;;;;;47.90;40.50;;;24.70;58.60;;;;;;4308184;61;21172;-24
2021/05/12 14:53:12;;;;;;;49.28;40.30;;;24.70;58.70;;;;;;4312553;60;21879;-24
2021/05/12 14:58:29;;;;;;;49.97;40.92;;;24.70;58.50;;;;;;4308619;61;21172;-25
2021/05/12 15:03:35;;;;;;;49.03;39.95;;;24.70;58.60;;;;;;4331417;61;21558;-27
2021/05/12 15:08:36;;;;;;;47.20;39.63;;;24.60;58.50;;;;;;4323643;61;21530;-28
2021/05/12 15:13:37;;;;;;;49.90;40.33;;;24.60;58.50;;;;;;4311877;61;21151;-27
2021/05/12 15:18:38;;;;;;;46.65;39.28;;;24.50;58.30;;;;;;4308660;61;21071;-26
2021/05/12 15:23:39;;;;;;;44.22;38.47;;;24.50;58.30;;;;;;4306281;61;21075;-34
2021/05/12 15:28:40;;;;;;;45.88;37.80;;;24.50;58.30;;;;;;4317490;61;21886;-27
2021/05/12 15:33:41;;;;;;;48.63;38.00;;;24.40;58.30;;;;;;4312269;61;21144;-27
2021/05/12 15:38:43;;;;;;;43.70;37.33;;;24.40;58.20;;;;;;4311212;61;21075;-27
2021/05/12 15:43:44;;;;;;;46.33;37.95;;;24.40;58.20;;;;;;4309021;61;21601;-20
2021/05/12 15:48:44;;;;;;;48.33;40.38;;;24.30;58.10;;;;;;4315771;61;21104;-27
2021/05/12 15:53:47;;;;;;;47.85;39.63;;;24.30;58.00;;;;;;4303113;65;21067;-27
2021/05/12 15:58:52;;;;;;;46.47;40.20;;;24.30;57.90;;;;;;4303583;61;21057;-26
2021/05/12 16:03:55;;;;;;;49.05;39.90;;;24.30;57.90;;;;;;4304213;61;21585;-26
2021/05/12 16:08:56;;;;;;;48.58;39.58;;;24.30;58.20;;;;;;4322592;61;21075;-22
2021/05/12 16:13:57;;;;;;;44.25;36.90;;;24.30;57.70;;;;;;4319224;61;21648;-22
2021/05/12 16:18:59;;;;;;;46.97;39.58;;;24.30;57.70;;;;;;4303109;61;21565;-24
2021/05/12 16:24:00;;;;;;;43.40;38.47;;;24.30;57.70;;;;;;4323178;60;21503;-24
2021/05/12 16:29:00;;;;;;;48.85;39.13;;;24.20;57.60;;;;;;4302540;61;21075;-24
2021/05/12 16:34:02;;;;;;;42.03;36.13;;;24.20;57.50;;;;;;4305844;61;21609;-24
2021/05/12 16:39:05;;;;;;;43.25;36.65;;;24.20;57.50;;;;;;4303251;65;21048;-22
2021/05/12 16:44:08;;;;;;;45.17;37.58;;;24.20;57.40;;;;;;4310425;61;22726;-23
2021/05/12 16:49:09;;;;;;;40.60;35.45;;;24.20;57.40;;;;;;4316016;61;21170;-25
2021/05/12 16:54:11;;;;;;;44.75;37.42;;;24.20;57.40;;;;;;4303180;61;21573;-27
2021/05/12 16:59:12;;;;;;;42.45;35.83;;;24.20;57.40;;;;;;4303023;65;21063;-26
2021/05/12 17:04:14;;;;;;;45.00;36.83;;;24.10;57.30;;;;;;4319742;61;21132;-22
2021/05/12 17:09:18;;;;;;;41.22;34.33;;;24.10;57.30;;;;;;4311546;61;21638;-27
2021/05/12 17:14:19;;;;;;;43.55;35.58;;;24.10;57.30;;;;;;4313674;61;21587;-26
2021/05/12 17:19:20;;;;;;;40.58;33.97;;;24.10;57.20;;;;;;4328065;61;21083;-25
2021/05/12 17:24:21;;;;;;;40.72;34.70;;;24.10;57.20;;;;;;4309470;61;21127;-22
2021/05/12 17:29:22;;;;;;;39.80;34.85;;;24.10;57.20;;;;;;4310842;61;21557;-28
2021/05/12 17:34:22;;;;;;;39.83;35.30;;;24.10;57.20;;;;;;4311782;61;21067;-27
2021/05/12 17:39:23;;;;;;;40.10;34.15;;;24.10;57.10;;;;;;4318676;61;21079;-24
2021/05/12 17:44:24;;;;;;;40.15;34.17;;;24.10;57.10;;;;;;4310348;60;21606;-27
2021/05/12 17:49:27;;;;;;;41.00;35.90;;;24.10;57.10;;;;;;4333536;61;21067;-28
2021/05/12 17:54:27;;;;;;;37.38;31.80;;;24.10;57.10;;;;;;4303428;65;21517;-24
2021/05/12 17:59:28;;;;;;;39.45;35.05;;;24.10;57.20;;;;;;4311844;61;21119;-26
2021/05/12 18:04:30;;;;;;;38.17;33.22;;;24.10;57.00;;;;;;4312845;61;21180;-25
2021/05/12 18:09:31;;;;;;;39.67;34.00;;;24.10;57.00;;;;;;4322186;61;21594;-26
2021/05/12 18:19:55;;;;;;;38.33;32.58;;;24.10;57.00;;;;;;4326866;61;21119;-25
2021/05/12 18:24:56;;;;;;;43.28;37.35;;;24.10;57.00;;;;;;4324619;60;21063;-27
2021/05/12 18:29:57;;;;;;;41.25;34.92;;;24.00;57.00;;;;;;4325447;61;21055;-26
2021/05/12 18:35:03;;;;;;;39.92;34.90;;;24.00;57.00;;;;;;4305526;61;21136;-27
2021/05/12 18:40:06;;;;;;;38.65;33.58;;;24.00;56.90;;;;;;4318633;61;21609;-26
2021/05/12 18:45:20;;;;;;;38.50;32.72;;;24.00;56.90;;;;;;4307484;61;22075;-26
2021/05/12 18:50:23;;;;;;;36.88;30.77;;;24.00;56.90;;;;;;4319577;61;21095;-27
2021/05/12 18:55:23;;;;;;;36.38;30.77;;;24.00;56.90;;;;;;4332797;61;22355;-26
2021/05/12 19:00:25;;;;;;;35.15;30.90;;;24.00;56.90;;;;;;4319136;61;21068;-27
2021/05/12 19:05:32;;;;;;;38.80;32.63;;;24.00;56.80;;;;;;4315071;61;21067;-28
2021/05/12 19:10:50;;;;;;;35.58;30.75;;;24.00;56.90;;;;;;4311463;61;21637;-27
2021/05/12 19:15:56;;;;;;;35.35;30.83;;;24.00;56.80;;;;;;4303053;65;21622;-26
2021/05/12 19:21:02;;;;;;;33.93;28.87;;;24.00;56.80;;;;;;4314634;61;21578;-21
2021/05/12 19:26:21;;;;;;;33.57;29.90;;;24.00;56.80;;;;;;4303593;61;21701;-21
2021/05/12 19:42:01;;;;;;;35.88;30.67;;;24.00;56.70;;;;;;4321932;61;21119;-25
2021/05/12 19:47:01;;;;;;;33.70;29.40;;;24.00;56.60;;;;;;4350279;61;21083;-23
2021/05/12 19:52:02;;;;;;;37.13;30.37;;;24.00;57.00;;;;;;4306912;61;21542;-24
2021/05/12 20:04:36;;;;;;;30.98;27.48;;;23.90;56.50;;;;;;4315348;60;21075;-28
2021/05/12 20:14:56;;;;;;;30.60;26.95;;;23.90;56.40;;;;;;4330410;61;21180;-26
2021/05/12 20:19:59;;;;;;;32.78;28.70;;;23.90;56.40;;;;;;4378098;60;21136;-26
2021/05/12 20:25:00;;;;;;;34.45;29.17;;;23.90;56.40;;;;;;4306366;61;21657;-24
2021/05/12 20:30:01;;;;;;;34.33;29.33;;;23.90;56.30;;;;;;4316631;61;21083;-27
2021/05/12 20:40:22;;;;;;;30.75;27.37;;;23.90;56.20;;;;;;4320829;60;21118;-27
2021/05/12 20:45:24;;;;;;;33.10;28.15;;;23.90;56.20;;;;;;4315474;61;21135;-26
2021/05/12 20:50:25;;;;;;;28.80;25.10;;;23.90;56.20;;;;;;4315852;61;21131;-25
2021/05/12 20:55:26;;;;;;;30.23;26.40;;;23.90;56.10;;;;;;4352274;60;21530;-26
2021/05/12 21:00:29;;;;;;;29.70;26.15;;;23.90;56.10;;;;;;4303864;61;21044;-27
2021/05/12 21:05:30;;;;;;;29.50;25.95;;;23.90;56.00;;;;;;4328080;61;21609;-24
2021/05/12 21:10:31;;;;;;;30.20;25.70;;;23.90;56.10;;;;;;4325741;61;21605;-26
2021/05/12 21:15:34;;;;;;;27.75;24.80;;;23.90;56.60;;;;;;4304992;61;21059;-25
2021/05/12 21:20:41;;;;;;;30.33;25.10;;;23.90;55.90;;;;;;4335235;61;21135;-25
2021/05/12 21:25:47;;;;;;;26.08;23.27;;;23.90;55.90;;;;;;4317501;61;21933;-23
2021/05/12 21:30:57;;;;;;;27.13;23.12;;;23.90;55.90;;;;;;4310528;61;22101;-24
2021/05/12 21:36:00;;;;;;;29.33;23.67;;;23.90;55.90;;;;;;4337950;61;21669;-27
2021/05/12 21:41:04;;;;;;;28.33;24.52;;;23.90;55.80;;;;;;4302832;65;21138;-24
2021/05/12 21:46:05;;;;;;;27.85;24.85;;;23.90;55.90;;;;;;4321625;61;21130;-27
2021/05/12 21:51:06;;;;;;;26.40;23.52;;;23.90;55.80;;;;;;4321227;61;21082;-27
2021/05/12 21:56:10;;;;;;;25.65;22.50;;;23.90;55.80;;;;;;4304854;61;21135;-26
2021/05/12 22:01:12;;;;;;;26.62;23.42;;;23.90;55.90;;;;;;4315330;61;21541;-24
2021/05/12 22:06:29;;;;;;;28.33;24.02;;;23.90;55.70;;;;;;4357068;61;21051;-25
2021/05/12 22:25:47;;;;;;;25.60;22.83;;;23.90;55.60;;;;;;4342861;61;21706;-24
2021/05/12 22:30:49;;;;;;;24.70;21.58;;;23.90;55.60;;;;;;4307684;61;21642;-26
2021/05/12 22:35:50;;;;;;;25.33;22.55;;;23.80;55.50;;;;;;4305929;61;21539;-23
2021/05/12 22:40:51;;;;;;;27.23;22.42;;;23.90;55.60;;;;;;4306476;61;21652;-25
2021/05/12 22:45:56;;;;;;;23.75;21.35;;;23.90;55.60;;;;;;4326616;61;21163;-25
2021/05/12 22:50:57;;;;;;;24.37;21.17;;;23.80;55.50;;;;;;4319753;61;21059;-23
2021/05/12 22:56:10;;;;;;;22.37;19.98;;;23.80;55.50;;;;;;4312976;61;21071;-22
2021/05/12 23:01:10;;;;;;;23.15;20.20;;;23.80;55.50;;;;;;4312894;61;21635;-25
2021/05/12 23:06:11;;;;;;;23.15;20.33;;;23.80;55.50;;;;;;4310458;61;21063;-22
2021/05/12 23:11:15;;;;;;;22.42;20.08;;;23.80;55.40;;;;;;4306869;61;21064;-26
2021/05/12 23:16:16;;;;;;;22.52;20.10;;;23.80;55.40;;;;;;4329092;61;21642;-24
2021/05/12 23:21:16;;;;;;;23.27;20.30;;;23.80;55.40;;;;;;4320573;61;21096;-26
2021/05/12 23:26:20;;;;;;;23.73;20.90;;;23.80;55.30;;;;;;4316508;61;21075;-27
2021/05/12 23:31:21;;;;;;;22.40;20.00;;;23.80;55.30;;;;;;4325941;61;21100;-23
2021/05/12 23:36:22;;;;;;;21.08;18.83;;;23.80;55.30;;;;;;4311633;61;21557;-24
2021/05/12 23:41:23;;;;;;;22.17;19.35;;;23.80;55.30;;;;;;4323291;61;21140;-25
2021/05/12 23:46:24;;;;;;;22.02;19.25;;;23.80;55.20;;;;;;4367986;61;21119;-24
2021/05/12 23:51:25;;;;;;;20.50;18.40;;;23.80;55.20;;;;;;4319714;61;21115;-24
2021/05/12 23:56:26;;;;;;;21.75;19.42;;;23.80;55.20;;;;;;4313466;61;21075;-26
